Flight Track Log - Related Links

Times and Time Zones

All times are in EDT time to prevent confusion due to time zone crossing. See the N779NC flight status page for this flight to view local times or setup timezone preferences in your user account.

Time Position Orientation Groundspeed Altitude Reporting Facility
EDT Latitude Longitude Course Direction KTS MPH feet Rate Location/Type
Mon 10:26:52 AM 32.1317 -81.3128 287° West 214 246 3,100  Level Jacksonville Center
Mon 10:27:52 AM 32.1761 -81.3733 311° West 214 246 4,800 2,000 Climbing Jacksonville Center
Mon 10:28:00 AM 32.1951 -81.4802 286° West  Level FlightAware Approximate
Mon 10:28:52 AM 32.2353 -81.4336 319° Northwest 261 300 7,100  Level Jacksonville Center
Mon 10:29:00 AM 32.2263 -81.5717 287° West  Level FlightAware Approximate
Mon 10:29:52 AM 32.2675 -81.5069 297° West 274 315 9,600  Level Jacksonville Center
Mon 10:30:00 AM 32.2501 -81.6671 288° West  Level FlightAware Approximate
Mon 10:30:52 AM 32.2978 -81.6047 290° West 292 336 11,000  Level Jacksonville Center
Mon 10:31:00 AM 32.2760 -81.7617 288° West  Level FlightAware Approximate
Mon 10:31:52 AM 32.3364 -81.7122 293° West 339 390 13,100  Level Jacksonville Center
Mon 10:32:00 AM 32.3016 -81.8564 287° West  Level FlightAware Approximate
Mon 10:34:16 AM 32.4453 -81.9739 296° West 369 425 18,000  Level Atlanta Center
Mon 10:35:16 AM 32.4969 -82.0786 300° West 374 430 19,900 1,750 Climbing Atlanta Center
Mon 10:36:16 AM 32.5447 -82.1958 296° West 382 440 21,500 1,050 Climbing Atlanta Center
Mon 10:37:16 AM 32.5883 -82.3181 293° West 387 445 22,000 250 Climbing Atlanta Center
Mon 10:38:16 AM 32.5900 -82.4586 271° West 402 463 22,000  Level Atlanta Center
Mon 10:39:16 AM 32.6169 -82.5961 283° West 418 481 22,000  Level Atlanta Center
Mon 10:40:16 AM 32.6558 -82.7239 290° West 423 487 22,000  Level Atlanta Center
Mon 10:41:16 AM 32.6947 -82.8517 290° West 417 480 22,000  Level Atlanta Center
Mon 10:43:16 AM 32.7722 -83.1272 289° West 438 504 22,000 -33 Level Atlanta Center
Mon 10:44:16 AM 32.8378 -83.2453 303° West 426 490 21,900 -1,200 Descending Atlanta Center
Mon 10:45:16 AM 32.9239 -83.3408 317° Northwest 449 517 19,600 -2,350 Descending Atlanta Center
Mon 10:46:16 AM 32.9892 -83.4592 303° West 449 517 17,200 -2,300 Descending Atlanta Center
Mon 10:47:16 AM 33.0669 -83.5878 306° West 438 504 15,000 -1,600 Descending Atlanta Center
Mon 10:48:16 AM 33.1300 -83.6742 311° West 409 471 14,000 -500 Descending Atlanta Center
Mon 10:49:16 AM 33.1992 -83.7781 309° West 409 471 14,000  Level Atlanta Center
Mon 10:50:16 AM 33.2703 -83.8847 309° West 403 464 14,000 -500 Level Atlanta Center
Mon 10:51:16 AM 33.3539 -83.9917 313° West 408 470 13,000 -850 Descending Atlanta Center
Mon 10:52:16 AM 33.4247 -84.0886 311° West 403 464 12,300 -450 Descending Atlanta Center
Mon 10:53:16 AM 33.4706 -84.1808 301° West 359 413 12,100 -100 Descending Atlanta Center
Mon 10:54:16 AM 33.5122 -84.2681 300° West 319 367 12,100 -600 Level Atlanta Center
Mon 10:55:16 AM 33.5267 -84.3628 280° West 290 334 10,900 -1,450 Descending Atlanta Center
Mon 10:56:16 AM 33.5389 -84.4550 279° West 290 334 9,200 -2,200 Descending Atlanta Center
Mon 10:57:16 AM 33.5344 -84.5447 267° West 280 322 6,500 -1,903 Descending Atlanta Center
Mon 10:59:22 AM 33.5333 -84.7167 270° West 265 305 3,300 -1,129 Descending Atlanta TRACON
Mon 11:00:22 AM 33.5833 -84.7500 331° Northwest 226 260 3,000 -158 Descending Atlanta TRACON
Mon 11:01:16 AM 33.6167 -84.7000 51° Northeast 196 226 3,000  Level Atlanta TRACON

Login

Don't have an account? Register now (free) for customized features, flight alerts, and more!